createdAt,value
2019-03-09T00:05:24.814Z,3.90
2019-03-09T00:07:59.527Z,4.63
2019-03-09T00:11:11.453Z,3.37
2019-03-09T00:13:53.505Z,3.57
2019-03-09T00:25:40.620Z,3.47
2019-03-09T00:28:32.636Z,3.77
2019-03-09T00:31:25.445Z,3.90
2019-03-09T00:34:12.199Z,4.00
2019-03-09T00:37:19.202Z,3.27
2019-03-09T00:40:07.717Z,3.67
2019-03-09T00:42:33.184Z,3.50
2019-03-09T00:51:19.212Z,3.57
2019-03-09T01:02:47.690Z,3.30
2019-03-09T01:08:23.774Z,3.43
2019-03-09T01:13:51.702Z,3.60
2019-03-09T01:16:53.048Z,4.17
2019-03-09T01:22:21.687Z,3.57
2019-03-09T01:26:12.410Z,3.53
2019-03-09T01:34:07.531Z,3.00
2019-03-09T01:43:07.564Z,2.87
2019-03-09T01:48:46.422Z,3.27
2019-03-09T01:51:28.750Z,2.30
2019-03-09T01:54:18.212Z,2.87
2019-03-09T02:00:09.110Z,3.57
2019-03-09T02:11:50.077Z,3.03
2019-03-09T02:14:53.203Z,3.13
2019-03-09T02:20:26.655Z,3.33
2019-03-09T02:23:16.196Z,2.77
2019-03-09T02:25:58.611Z,4.00
2019-03-09T02:33:59.114Z,3.40
2019-03-09T02:48:20.713Z,4.40
2019-03-09T02:54:08.097Z,5.10
2019-03-09T03:00:54.037Z,4.87
2019-03-09T03:05:14.571Z,4.97
2019-03-09T03:17:22.533Z,4.97
2019-03-09T03:23:01.025Z,5.43
2019-03-09T03:32:23.318Z,5.57
2019-03-09T03:38:30.752Z,4.73
2019-03-09T03:47:18.496Z,4.80
2019-03-09T04:10:17.351Z,4.70
2019-03-09T04:12:48.462Z,4.50
2019-03-09T04:15:21.662Z,4.40
2019-03-09T04:18:23.162Z,4.63
2019-03-09T04:23:56.980Z,4.13
2019-03-09T04:32:42.639Z,4.90
2019-03-09T04:37:52.339Z,4.57
2019-03-09T04:40:21.428Z,5.23
2019-03-09T04:43:10.284Z,5.40
2019-03-09T04:45:39.485Z,5.67
2019-03-09T04:48:29.949Z,5.20
2019-03-09T04:51:19.835Z,5.23
2019-03-09T04:53:49.868Z,6.10
2019-03-09T04:56:38.697Z,5.67
2019-03-09T04:59:20.298Z,5.43
2019-03-09T05:02:01.463Z,5.27
2019-03-09T05:07:58.599Z,5.90
2019-03-09T05:10:40.068Z,5.33
2019-03-09T05:13:21.147Z,5.10
2019-03-09T05:15:59.387Z,5.30
2019-03-09T05:21:36.750Z,5.40
2019-03-09T05:24:18.303Z,5.67
2019-03-09T05:29:42.515Z,5.70
2019-03-09T05:32:24.318Z,5.73
2019-03-09T05:35:05.327Z,5.17
2019-03-09T05:37:47.252Z,5.70
2019-03-09T05:43:11.795Z,5.40
2019-03-09T05:48:34.101Z,5.27
2019-03-09T05:51:15.382Z,5.73
2019-03-09T05:56:48.553Z,5.40
2019-03-09T05:59:29.780Z,6.30
2019-03-09T06:04:39.314Z,6.30
2019-03-09T06:07:28.114Z,5.90
2019-03-09T06:09:58.243Z,5.47
2019-03-09T06:12:27.462Z,6.17
2019-03-09T06:14:57.381Z,6.10
2019-03-09T06:17:48.095Z,5.50
2019-03-09T06:20:29.667Z,6.30
2019-03-09T06:23:10.723Z,6.67
2019-03-09T06:25:56.388Z,6.17
2019-03-09T06:28:26.449Z,5.37
2019-03-09T06:31:15.218Z,5.67
2019-03-09T06:34:03.343Z,6.03
2019-03-09T06:36:45.011Z,6.87
2019-03-09T06:42:06.372Z,6.40
2019-03-09T06:44:36.353Z,6.17
2019-03-09T06:47:08.830Z,6.10
2019-03-09T06:49:42.311Z,6.27
2019-03-09T06:52:17.519Z,5.77
2019-03-09T06:57:37.405Z,6.43
2019-03-09T07:00:41.101Z,6.80
2019-03-09T07:05:43.050Z,6.40
2019-03-09T07:08:12.965Z,7.00
2019-03-09T07:10:42.792Z,7.03
2019-03-09T07:13:34.107Z,7.10
2019-03-09T07:16:06.202Z,6.30
2019-03-09T07:18:55.059Z,6.27
2019-03-09T07:21:43.876Z,6.53
2019-03-09T07:24:24.791Z,6.77
2019-03-09T07:27:07.474Z,6.27
2019-03-09T07:29:50.492Z,6.47
2019-03-09T07:35:14.852Z,6.00
2019-03-09T07:37:55.869Z,5.83
2019-03-09T07:40:37.483Z,5.63
2019-03-09T07:43:18.928Z,6.20
2019-03-09T07:48:47.392Z,5.80
2019-03-09T07:51:29.271Z,6.27
2019-03-09T07:56:50.155Z,5.70
2019-03-09T07:59:29.122Z,5.60
2019-03-09T08:01:59.344Z,5.50
2019-03-09T08:04:32.409Z,5.93
2019-03-09T08:10:29.574Z,5.60
2019-03-09T08:13:05.556Z,5.27
2019-03-09T08:18:57.927Z,6.70
2019-03-09T08:24:28.567Z,6.13
2019-03-09T08:27:00.388Z,5.90
2019-03-09T08:29:54.071Z,6.10
2019-03-09T08:32:43.092Z,5.87
2019-03-09T08:35:24.175Z,5.60
2019-03-09T08:38:05.432Z,6.03
2019-03-09T08:40:47.090Z,6.20
2019-03-09T08:46:05.512Z,6.20
2019-03-09T08:48:46.713Z,5.17
2019-03-09T08:51:28.153Z,6.73
2019-03-09T08:56:57.003Z,6.03
2019-03-09T09:02:18.337Z,6.57
2019-03-09T09:10:45.640Z,5.77
2019-03-09T09:13:30.053Z,6.63
2019-03-09T09:16:11.415Z,6.40
2019-03-09T09:22:11.890Z,6.50
2019-03-09T09:25:02.047Z,6.70
2019-03-09T09:27:52.156Z,6.33
2019-03-09T09:30:35.942Z,6.07
2019-03-09T09:33:45.985Z,6.27
2019-03-09T09:39:01.290Z,6.30
2019-03-09T09:41:44.704Z,6.40
2019-03-09T09:44:33.818Z,5.73
2019-03-09T09:47:12.363Z,5.60
2019-03-09T09:49:54.848Z,5.90
2019-03-09T09:52:38.584Z,5.87
2019-03-09T09:58:05.162Z,7.00
2019-03-09T10:00:49.003Z,6.30
2019-03-09T10:03:33.964Z,6.40
2019-03-09T10:06:18.623Z,6.67
2019-03-09T10:09:07.432Z,6.73
2019-03-09T10:11:50.934Z,6.97
2019-03-09T10:14:36.975Z,7.20
2019-03-09T10:17:18.561Z,6.37
2019-03-09T10:20:06.027Z,6.60
2019-03-09T10:22:45.862Z,6.87
2019-03-09T10:25:31.639Z,6.70
2019-03-09T10:28:14.248Z,7.00
2019-03-09T10:30:57.870Z,6.43
2019-03-09T10:33:44.605Z,6.47
2019-03-09T10:36:22.395Z,6.97
2019-03-09T10:39:01.812Z,6.80
2019-03-09T10:41:43.176Z,6.60
2019-03-09T10:44:27.405Z,6.23
2019-03-09T10:47:10.758Z,6.17
2019-03-09T10:49:51.982Z,6.20
2019-03-09T10:52:34.394Z,5.57
2019-03-09T10:55:15.862Z,6.10
2019-03-09T10:57:54.008Z,5.83
2019-03-09T11:00:38.742Z,5.70
2019-03-09T11:03:20.232Z,5.77
2019-03-09T11:11:26.458Z,4.73
2019-03-09T11:14:08.872Z,4.83
2019-03-09T11:16:52.445Z,5.50
2019-03-09T11:22:16.782Z,4.80
2019-03-09T11:25:03.368Z,4.00
2019-03-09T11:27:41.712Z,3.70
2019-03-09T11:30:24.874Z,3.77
2019-03-09T11:32:59.908Z,3.03
2019-03-09T11:35:32.782Z,3.90
2019-03-09T11:38:36.541Z,3.40
2019-03-09T11:41:21.963Z,3.17
2019-03-09T11:43:50.900Z,3.00
2019-03-09T11:46:34.552Z,3.33
2019-03-09T11:55:18.468Z,3.20
2019-03-09T12:00:34.031Z,3.00
2019-03-09T12:03:22.724Z,2.97
2019-03-09T12:06:05.369Z,3.37
2019-03-09T12:08:53.695Z,2.97
2019-03-09T12:11:43.938Z,3.47
2019-03-09T12:15:01.934Z,3.60
2019-03-09T12:17:12.359Z,3.57
2019-03-09T12:19:52.929Z,3.33
2019-03-09T12:25:19.924Z,4.00
2019-03-09T12:28:01.379Z,3.33
2019-03-09T12:33:27.707Z,4.00
2019-03-09T12:36:09.852Z,3.67
2019-03-09T12:39:55.357Z,3.47
2019-03-09T12:41:52.619Z,3.23
2019-03-09T12:44:36.871Z,3.50
2019-03-09T12:47:19.089Z,3.90
2019-03-09T12:50:01.470Z,3.63
2019-03-09T12:52:45.452Z,3.40
2019-03-09T12:55:26.447Z,2.07
2019-03-09T12:58:12.284Z,3.50
2019-03-09T13:00:53.597Z,2.83
2019-03-09T13:06:14.536Z,2.93
2019-03-09T13:08:58.501Z,2.23
2019-03-09T13:11:41.864Z,2.93
2019-03-09T13:14:26.179Z,1.37
2019-03-09T13:17:04.928Z,1.23
2019-03-09T13:19:48.621Z,1.00
2019-03-09T13:22:30.223Z,1.10
2019-03-09T13:25:13.517Z,1.40
2019-03-09T13:27:58.372Z,1.00
2019-03-09T13:30:45.673Z,2.10
2019-03-09T13:33:25.693Z,2.03
2019-03-09T13:36:09.632Z,1.50
2019-03-09T13:44:57.233Z,1.10
2019-03-09T13:47:44.714Z,1.10
2019-03-09T13:53:11.291Z,0.77
2019-03-09T13:56:03.087Z,0.83
2019-03-09T13:58:31.262Z,1.07
2019-03-09T14:09:36.806Z,1.20
2019-03-09T14:12:20.446Z,1.10
2019-03-09T14:18:02.389Z,0.60
2019-03-09T14:24:00.555Z,1.90
2019-03-09T14:29:35.905Z,1.47
2019-03-09T14:34:52.871Z,1.83
2019-03-09T14:37:39.635Z,2.20
2019-03-09T14:40:21.245Z,1.57
2019-03-09T14:48:38.049Z,1.70
2019-03-09T14:54:09.238Z,1.27
2019-03-09T14:56:50.881Z,1.40
2019-03-09T14:59:33.652Z,1.07
2019-03-09T15:02:16.728Z,1.43
2019-03-09T15:07:43.673Z,1.33
2019-03-09T15:10:30.070Z,1.33
2019-03-09T15:13:38.340Z,2.10
2019-03-09T15:16:06.707Z,2.03
2019-03-09T15:18:52.093Z,3.07
2019-03-09T15:27:07.554Z,2.80
2019-03-09T15:29:58.354Z,3.47
2019-03-09T15:32:40.689Z,2.40
2019-03-09T15:35:25.333Z,2.20
2019-03-09T15:41:00.142Z,2.67
2019-03-09T15:43:42.584Z,2.67
2019-03-09T15:51:51.089Z,3.23
2019-03-09T15:54:32.536Z,3.13
2019-03-09T15:57:12.904Z,3.20
2019-03-09T15:59:56.025Z,3.37
2019-03-09T16:02:38.281Z,3.00
2019-03-09T16:05:22.800Z,2.93
2019-03-09T16:08:10.090Z,2.90
2019-03-09T16:19:41.438Z,4.00
2019-03-09T16:25:21.235Z,5.37
2019-03-09T16:28:03.379Z,5.33
2019-03-09T16:30:44.857Z,4.10
2019-03-09T16:36:17.778Z,3.80
2019-03-09T16:38:50.025Z,2.93
2019-03-09T16:41:19.253Z,2.30
2019-03-09T16:44:08.450Z,1.80
2019-03-09T16:46:58.701Z,2.10
2019-03-09T16:49:28.608Z,1.93
2019-03-09T16:52:17.542Z,1.63
2019-03-09T16:55:06.715Z,2.07
2019-03-09T17:06:12.398Z,2.50
2019-03-09T17:11:38.607Z,2.40
2019-03-09T17:17:02.397Z,3.20
2019-03-09T17:19:43.588Z,3.90
2019-03-09T17:22:32.617Z,5.67
2019-03-09T17:25:08.612Z,5.50
2019-03-09T17:27:50.129Z,7.47
2019-03-09T17:30:35.056Z,8.83
2019-03-09T17:33:16.447Z,7.57
2019-03-09T17:35:58.258Z,6.70
2019-03-09T17:41:23.804Z,5.53
2019-03-09T17:44:11.496Z,6.50
2019-03-09T17:46:51.513Z,5.57
2019-03-09T17:49:33.031Z,6.57
2019-03-09T17:52:14.551Z,11.80
2019-03-09T17:57:37.454Z,6.03
2019-03-09T18:03:04.299Z,3.30
2019-03-09T18:09:04.531Z,4.10
2019-03-09T18:12:07.658Z,3.40
2019-03-09T18:20:09.344Z,4.23
2019-03-09T18:22:56.033Z,7.13
2019-03-09T18:25:38.948Z,9.67
2019-03-09T18:28:20.744Z,12.00
2019-03-09T18:31:06.355Z,14.03
2019-03-09T18:33:51.209Z,15.00
2019-03-09T18:36:33.090Z,14.77
2019-03-09T18:39:15.183Z,10.90
2019-03-09T18:41:57.016Z,7.80
2019-03-09T18:53:08.241Z,4.97
2019-03-09T19:01:09.152Z,6.30
2019-03-09T19:05:29.798Z,5.10
2019-03-09T19:09:51.967Z,4.00
2019-03-09T19:15:32.698Z,4.40
2019-03-09T19:19:02.311Z,5.20
2019-03-09T19:27:25.363Z,2.60
2019-03-09T20:08:30.179Z,2.70
2019-03-09T20:26:50.322Z,3.83
2019-03-09T20:29:34.516Z,4.00
2019-03-09T20:32:30.902Z,3.97
2019-03-09T20:35:26.460Z,3.87
2019-03-09T20:47:26.075Z,4.63
2019-03-09T20:49:46.664Z,4.30
2019-03-09T20:55:13.951Z,4.10
2019-03-09T21:03:19.258Z,4.17
2019-03-09T21:06:10.058Z,3.53
2019-03-09T21:08:58.186Z,4.33
2019-03-09T21:11:42.662Z,4.53
2019-03-09T21:14:24.236Z,4.33
2019-03-09T21:17:02.968Z,4.87
2019-03-09T21:19:46.410Z,4.37
2019-03-09T21:25:23.131Z,4.77
2019-03-09T21:28:04.274Z,6.27
2019-03-09T21:30:45.628Z,6.23
2019-03-09T21:33:26.523Z,6.40
2019-03-09T21:36:29.900Z,6.23
2019-03-09T21:38:58.485Z,6.43
2019-03-09T21:41:39.740Z,5.67
2019-03-09T21:44:20.928Z,6.70
2019-03-09T21:47:02.968Z,6.30
2019-03-09T21:49:49.548Z,6.00
2019-03-09T21:52:30.079Z,6.10
2019-03-09T21:55:11.837Z,5.77
2019-03-09T21:57:53.053Z,5.70
2019-03-09T22:00:34.468Z,5.90
2019-03-09T22:03:15.611Z,5.40
2019-03-09T22:06:05.570Z,5.53
2019-03-09T22:08:41.137Z,6.17
2019-03-09T22:11:22.395Z,4.77
2019-03-09T22:14:04.132Z,4.50
2019-03-09T22:19:28.190Z,5.23
2019-03-09T22:24:52.811Z,5.50
2019-03-09T22:27:34.437Z,5.57
2019-03-09T22:30:12.824Z,4.30
2019-03-09T22:32:42.565Z,3.70
2019-03-09T22:35:31.303Z,3.53
2019-03-09T22:38:14.860Z,3.83
2019-03-09T22:40:55.938Z,3.90
2019-03-09T22:43:34.245Z,4.70
2019-03-09T22:46:17.298Z,3.83
2019-03-09T22:54:27.107Z,3.00
2019-03-09T22:59:40.695Z,2.37
2019-03-09T23:02:14.689Z,2.33
2019-03-09T23:05:02.734Z,2.17
2019-03-09T23:07:51.494Z,2.33
2019-03-09T23:10:32.796Z,2.30
2019-03-09T23:15:54.194Z,2.40
2019-03-09T23:21:17.908Z,2.73
2019-03-09T23:23:59.183Z,2.13
2019-03-09T23:26:28.179Z,1.97
2019-03-09T23:29:16.971Z,2.03
2019-03-09T23:31:54.768Z,1.40
2019-03-09T23:34:24.207Z,1.80
2019-03-09T23:36:58.714Z,1.93
2019-03-09T23:39:51.889Z,1.80
2019-03-09T23:42:59.106Z,1.80
2019-03-09T23:46:04.995Z,1.70
2019-03-09T23:51:13.950Z,1.90
2019-03-09T23:54:49.838Z,1.70
2019-03-09T23:57:00.869Z,1.27
2019-03-09T23:59:21.417Z,1.60
